createdAt,value
2019-01-31T00:03:52.677Z,-0.13
2019-01-31T00:09:33.704Z,-0.09
2019-01-31T00:15:03.317Z,-0.24
2019-01-31T00:20:50.339Z,-0.26
2019-01-31T00:26:20.422Z,-0.23
2019-01-31T00:32:02.189Z,-0.38
2019-01-31T00:37:27.290Z,-0.55
2019-01-31T00:43:19.604Z,-0.62
2019-01-31T00:48:37.710Z,-0.46
2019-01-31T00:54:23.002Z,-0.58
2019-01-31T00:59:55.126Z,-0.64
2019-01-31T01:05:51.437Z,-0.79
2019-01-31T01:11:33.718Z,-0.80
2019-01-31T01:17:04.630Z,-0.83
2019-01-31T01:22:25.723Z,-0.92
2019-01-31T01:28:13.951Z,-0.93
2019-01-31T01:33:55.179Z,-1.03
2019-01-31T01:39:23.097Z,-1.08
2019-01-31T01:44:45.264Z,-1.06
2019-01-31T01:49:54.111Z,-1.04
2019-01-31T01:55:06.074Z,-1.05
2019-01-31T02:00:57.700Z,-1.16
2019-01-31T02:06:47.454Z,-1.12
2019-01-31T02:12:37.091Z,-1.19
2019-01-31T02:17:48.404Z,-1.18
2019-01-31T02:23:17.188Z,-1.14
2019-01-31T02:28:40.537Z,-1.00
2019-01-31T02:34:22.208Z,-0.94
2019-01-31T02:40:13.522Z,-0.98
2019-01-31T02:45:52.104Z,-1.13
2019-01-31T02:51:38.793Z,-1.07
2019-01-31T02:57:03.573Z,-0.95
2019-01-31T03:02:30.744Z,-0.91
2019-01-31T03:08:18.865Z,-1.02
2019-01-31T03:13:44.683Z,-1.05
2019-01-31T03:19:14.641Z,-0.98
2019-01-31T03:24:45.835Z,-1.02
2019-01-31T03:30:24.982Z,-1.02
2019-01-31T03:35:58.872Z,-0.96
2019-01-31T03:41:33.408Z,-0.85
2019-01-31T03:46:58.521Z,-0.90
2019-01-31T03:52:45.060Z,-0.94
2019-01-31T03:58:40.976Z,-0.93
2019-01-31T04:04:03.098Z,-1.02
2019-01-31T04:09:07.971Z,-0.96
2019-01-31T04:14:10.001Z,-0.95
2019-01-31T04:19:12.293Z,-0.99
2019-01-31T04:24:14.324Z,-0.90
2019-01-31T04:29:16.352Z,-0.99
2019-01-31T04:34:18.334Z,-1.00
2019-01-31T04:39:20.316Z,-0.90
2019-01-31T04:44:22.366Z,-1.03
2019-01-31T04:49:24.376Z,-1.06
2019-01-31T04:54:26.381Z,-0.99
2019-01-31T04:59:28.327Z,-0.91
2019-01-31T05:04:30.610Z,-0.93
2019-01-31T05:09:32.678Z,-0.92
2019-01-31T05:14:34.650Z,-1.01
2019-01-31T05:19:36.704Z,-0.95
2019-01-31T05:24:38.722Z,-0.91
2019-01-31T05:29:40.758Z,-0.87
2019-01-31T05:34:42.714Z,-0.85
2019-01-31T05:39:44.671Z,-0.92
2019-01-31T05:44:46.672Z,-0.88
2019-01-31T05:49:48.728Z,-0.90
2019-01-31T05:54:50.762Z,-0.80
2019-01-31T05:59:52.765Z,-0.78
2019-01-31T06:04:54.837Z,-0.72
2019-01-31T06:09:56.834Z,-0.77
2019-01-31T06:14:58.866Z,-0.80
2019-01-31T06:20:01.180Z,-0.83
2019-01-31T06:25:04.620Z,-0.88
2019-01-31T06:30:07.997Z,-0.89
2019-01-31T06:35:10.420Z,-0.81
2019-01-31T06:40:14.734Z,-0.73
2019-01-31T06:45:18.181Z,-0.73
2019-01-31T06:50:20.230Z,-0.76
2019-01-31T06:55:22.484Z,-0.77
2019-01-31T07:00:24.509Z,-0.68
2019-01-31T07:05:26.498Z,-0.81
2019-01-31T07:10:28.480Z,-0.77
2019-01-31T07:15:30.760Z,-0.74
2019-01-31T07:20:32.853Z,-0.66
2019-01-31T07:25:35.129Z,-0.72
2019-01-31T07:30:37.117Z,-0.60
2019-01-31T07:35:39.099Z,-0.65
2019-01-31T07:40:41.075Z,-0.65
2019-01-31T07:45:43.091Z,-0.47
2019-01-31T07:50:45.077Z,-0.45
2019-01-31T07:55:48.194Z,-0.51
2019-01-31T08:00:50.165Z,-0.49
2019-01-31T08:05:52.202Z,-0.48
2019-01-31T08:10:54.207Z,-0.40
2019-01-31T08:15:56.167Z,-0.45
2019-01-31T08:20:58.134Z,-0.38
2019-01-31T08:26:00.178Z,-0.36
2019-01-31T08:31:02.155Z,-0.33
2019-01-31T08:36:04.253Z,-0.26
2019-01-31T08:41:06.271Z,-0.30
2019-01-31T08:46:08.491Z,-0.21
2019-01-31T08:51:10.515Z,-0.18
2019-01-31T08:56:12.548Z,-0.06
2019-01-31T09:01:15.720Z,-0.02
2019-01-31T09:06:18.467Z,-0.07
2019-01-31T09:11:20.484Z,-0.05
2019-01-31T09:16:22.522Z,-0.04
2019-01-31T09:21:50.257Z,-0.07
2019-01-31T09:27:19.496Z,-0.21
2019-01-31T09:32:54.210Z,-0.15
2019-01-31T09:38:49.915Z,-0.17
2019-01-31T09:44:48.787Z,-0.13
2019-01-31T09:50:16.271Z,-0.31
2019-01-31T09:56:06.021Z,-0.20
2019-01-31T10:01:52.642Z,-0.07
2019-01-31T10:07:25.090Z,-0.07
2019-01-31T10:12:49.937Z,0.03
2019-01-31T10:18:22.592Z,-0.04
2019-01-31T10:24:05.130Z,-0.06
2019-01-31T10:29:48.718Z,-0.08
2019-01-31T10:35:31.184Z,-0.02
2019-01-31T10:40:59.709Z,0.07
2019-01-31T10:46:41.716Z,0.36
2019-01-31T10:52:15.000Z,0.58
2019-01-31T10:57:47.056Z,0.51
2019-01-31T11:03:16.747Z,0.70
2019-01-31T11:09:18.454Z,0.41
2019-01-31T11:15:17.056Z,0.43
2019-01-31T11:20:59.724Z,0.21
2019-01-31T11:26:40.221Z,0.19
2019-01-31T11:32:19.858Z,0.25
2019-01-31T11:37:53.854Z,0.30
2019-01-31T11:43:43.686Z,0.35
2019-01-31T11:49:13.779Z,0.39
2019-01-31T11:55:09.575Z,0.57
2019-01-31T12:00:13.800Z,0.76
2019-01-31T12:05:15.937Z,0.94
2019-01-31T12:10:18.220Z,1.01
2019-01-31T12:15:20.323Z,1.01
2019-01-31T12:20:22.357Z,0.77
2019-01-31T12:25:24.389Z,0.68
2019-01-31T12:30:26.755Z,0.71
2019-01-31T12:35:29.798Z,0.75
2019-01-31T12:40:32.092Z,0.77
2019-01-31T12:45:34.151Z,0.87
2019-01-31T12:50:36.263Z,0.90
2019-01-31T12:55:38.306Z,1.09
2019-01-31T13:00:40.413Z,1.30
2019-01-31T13:05:42.754Z,1.20
2019-01-31T13:10:44.779Z,1.13
2019-01-31T13:15:46.819Z,1.15
2019-01-31T13:20:48.829Z,1.16
2019-01-31T13:25:50.945Z,1.26
2019-01-31T13:30:52.958Z,1.22
2019-01-31T13:35:55.041Z,1.28
2019-01-31T13:40:57.012Z,1.33
2019-01-31T13:45:59.077Z,1.34
2019-01-31T13:51:03.087Z,1.37
2019-01-31T13:56:05.966Z,1.41
2019-01-31T14:01:08.036Z,1.44
2019-01-31T14:06:10.032Z,1.41
2019-01-31T14:11:12.007Z,1.38
2019-01-31T14:16:14.308Z,1.38
2019-01-31T14:21:16.348Z,1.31
2019-01-31T14:26:18.361Z,1.37
2019-01-31T14:31:21.434Z,1.38
2019-01-31T14:36:23.592Z,1.45
2019-01-31T14:41:25.594Z,1.42
2019-01-31T14:46:27.873Z,1.36
2019-01-31T14:51:29.986Z,1.25
2019-01-31T14:56:32.053Z,1.21
2019-01-31T15:01:34.144Z,1.25
2019-01-31T15:06:36.240Z,1.19
2019-01-31T15:11:38.621Z,1.25
2019-01-31T15:16:40.953Z,1.21
2019-01-31T15:21:42.982Z,1.23
2019-01-31T15:26:45.009Z,1.20
2019-01-31T15:31:47.347Z,1.21
2019-01-31T15:36:49.498Z,1.17
2019-01-31T15:41:51.583Z,1.17
2019-01-31T15:46:53.920Z,1.12
2019-01-31T15:51:56.044Z,1.11
2019-01-31T15:56:58.136Z,1.04
2019-01-31T16:02:00.196Z,1.03
2019-01-31T16:07:02.608Z,1.02
2019-01-31T16:12:04.713Z,0.95
2019-01-31T16:17:06.724Z,0.93
2019-01-31T16:22:08.842Z,0.91
2019-01-31T16:27:13.078Z,0.87
2019-01-31T16:32:15.109Z,0.82
2019-01-31T16:37:17.460Z,0.79
2019-01-31T16:42:19.522Z,0.68
2019-01-31T16:47:21.506Z,0.68
2019-01-31T16:52:23.552Z,0.70
2019-01-31T16:57:25.624Z,0.68
2019-01-31T17:02:27.772Z,0.64
2019-01-31T17:07:29.752Z,0.49
2019-01-31T17:12:31.816Z,0.41
2019-01-31T17:17:33.977Z,0.37
2019-01-31T17:22:35.981Z,0.34
2019-01-31T17:27:37.980Z,0.41
2019-01-31T17:32:40.390Z,0.27
2019-01-31T17:37:42.412Z,0.27
2019-01-31T17:42:44.423Z,0.40
2019-01-31T17:47:46.433Z,0.43
2019-01-31T17:52:48.761Z,0.60
2019-01-31T17:57:50.864Z,0.59
2019-01-31T18:02:52.895Z,0.62
2019-01-31T18:07:54.903Z,0.58
2019-01-31T18:12:56.906Z,0.40
2019-01-31T18:17:58.902Z,0.26
2019-01-31T18:23:01.098Z,0.19
2019-01-31T18:28:03.330Z,0.14
2019-01-31T18:33:05.370Z,-0.01
2019-01-31T18:38:07.567Z,0.02
2019-01-31T18:43:09.720Z,-0.06
2019-01-31T18:48:13.110Z,-0.03
2019-01-31T18:53:15.124Z,-0.09
2019-01-31T18:58:17.411Z,-0.13
2019-01-31T19:03:20.804Z,-0.12
2019-01-31T19:08:23.036Z,-0.27
2019-01-31T19:45:17.953Z,-0.47
2019-01-31T21:30:24.546Z,-0.63
2019-01-31T22:48:07.508Z,-0.26
2019-01-31T23:38:27.995Z,-0.15
2019-01-31T23:51:26.849Z,0.03
